sensor_id;sensor_type;location;lat;lon;timestamp;temperature;humidity
15983;DHT22;14442;50.196;8.096;2023-11-22T00:00:13;23.90;49.70
15983;DHT22;14442;50.196;8.096;2023-11-22T00:02:40;23.80;49.60
15983;DHT22;14442;50.196;8.096;2023-11-22T00:05:07;23.80;49.70
15983;DHT22;14442;50.196;8.096;2023-11-22T00:07:34;23.80;49.70
15983;DHT22;14442;50.196;8.096;2023-11-22T00:10:04;23.80;49.60
15983;DHT22;14442;50.196;8.096;2023-11-22T00:12:31;23.80;49.70
15983;DHT22;14442;50.196;8.096;2023-11-22T00:15:02;23.80;49.60
15983;DHT22;14442;50.196;8.096;2023-11-22T00:17:30;23.80;49.70
15983;DHT22;14442;50.196;8.096;2023-11-22T00:19:57;23.80;49.70
15983;DHT22;14442;50.196;8.096;2023-11-22T00:22:25;23.80;49.70
15983;DHT22;14442;50.196;8.096;2023-11-22T00:24:53;23.70;49.70
15983;DHT22;14442;50.196;8.096;2023-11-22T00:27:21;23.70;49.70
15983;DHT22;14442;50.196;8.096;2023-11-22T00:29:47;23.70;49.80
15983;DHT22;14442;50.196;8.096;2023-11-22T00:32:14;23.70;49.90
15983;DHT22;14442;50.196;8.096;2023-11-22T00:34:41;23.70;49.90
15983;DHT22;14442;50.196;8.096;2023-11-22T00:37:08;23.70;50.00
15983;DHT22;14442;50.196;8.096;2023-11-22T00:39:34;23.60;49.90
15983;DHT22;14442;50.196;8.096;2023-11-22T00:42:01;23.60;49.90
15983;DHT22;14442;50.196;8.096;2023-11-22T00:44:30;23.60;50.00
15983;DHT22;14442;50.196;8.096;2023-11-22T00:46:57;23.60;49.90
15983;DHT22;14442;50.196;8.096;2023-11-22T00:49:24;23.60;50.00
15983;DHT22;14442;50.196;8.096;2023-11-22T00:51:50;23.60;50.00
15983;DHT22;14442;50.196;8.096;2023-11-22T00:54:17;23.60;50.00
15983;DHT22;14442;50.196;8.096;2023-11-22T00:56:45;23.60;49.90
15983;DHT22;14442;50.196;8.096;2023-11-22T00:59:12;23.50;50.00
15983;DHT22;14442;50.196;8.096;2023-11-22T01:01:40;23.50;50.00
15983;DHT22;14442;50.196;8.096;2023-11-22T01:04:07;23.50;50.10
15983;DHT22;14442;50.196;8.096;2023-11-22T01:06:34;23.50;50.00
15983;DHT22;14442;50.196;8.096;2023-11-22T01:09:03;23.50;50.00
15983;DHT22;14442;50.196;8.096;2023-11-22T01:11:30;23.40;50.00
15983;DHT22;14442;50.196;8.096;2023-11-22T01:13:56;23.50;50.10
15983;DHT22;14442;50.196;8.096;2023-11-22T01:16:23;23.40;50.10
15983;DHT22;14442;50.196;8.096;2023-11-22T01:18:51;23.40;50.00
15983;DHT22;14442;50.196;8.096;2023-11-22T01:21:18;23.40;49.90
15983;DHT22;14442;50.196;8.096;2023-11-22T01:23:45;23.40;49.90
15983;DHT22;14442;50.196;8.096;2023-11-22T01:26:12;23.40;50.00
15983;DHT22;14442;50.196;8.096;2023-11-22T01:28:39;23.40;50.00
15983;DHT22;14442;50.196;8.096;2023-11-22T01:31:11;23.40;50.10
15983;DHT22;14442;50.196;8.096;2023-11-22T01:33:38;23.40;50.00
15983;DHT22;14442;50.196;8.096;2023-11-22T01:36:07;23.40;50.10
15983;DHT22;14442;50.196;8.096;2023-11-22T01:38:34;23.40;50.00
15983;DHT22;14442;50.196;8.096;2023-11-22T01:41:01;23.40;50.00
15983;DHT22;14442;50.196;8.096;2023-11-22T01:43:27;23.30;49.90
15983;DHT22;14442;50.196;8.096;2023-11-22T01:45:54;23.30;49.90
15983;DHT22;14442;50.196;8.096;2023-11-22T01:48:21;23.30;49.90
15983;DHT22;14442;50.196;8.096;2023-11-22T01:50:49;23.30;49.90
15983;DHT22;14442;50.196;8.096;2023-11-22T01:53:17;23.30;49.90
15983;DHT22;14442;50.196;8.096;2023-11-22T01:55:47;23.30;50.00
15983;DHT22;14442;50.196;8.096;2023-11-22T01:58:14;23.30;50.00
15983;DHT22;14442;50.196;8.096;2023-11-22T02:00:45;23.30;50.00
15983;DHT22;14442;50.196;8.096;2023-11-22T02:03:14;23.20;49.90
15983;DHT22;14442;50.196;8.096;2023-11-22T02:05:42;23.20;49.90
15983;DHT22;14442;50.196;8.096;2023-11-22T02:08:09;23.30;50.00
15983;DHT22;14442;50.196;8.096;2023-11-22T02:10:37;23.20;49.80
15983;DHT22;14442;50.196;8.096;2023-11-22T02:13:04;23.20;49.90
15983;DHT22;14442;50.196;8.096;2023-11-22T02:15:33;23.20;49.90
15983;DHT22;14442;50.196;8.096;2023-11-22T02:18:00;23.20;49.90
15983;DHT22;14442;50.196;8.096;2023-11-22T02:20:27;23.20;49.80
15983;DHT22;14442;50.196;8.096;2023-11-22T02:22:54;23.20;49.90
15983;DHT22;14442;50.196;8.096;2023-11-22T02:25:23;23.20;49.80
15983;DHT22;14442;50.196;8.096;2023-11-22T02:27:50;23.20;49.90
15983;DHT22;14442;50.196;8.096;2023-11-22T02:30:17;23.10;49.80
15983;DHT22;14442;50.196;8.096;2023-11-22T02:32:44;23.20;50.50
15983;DHT22;14442;50.196;8.096;2023-11-22T02:35:11;23.20;49.80
15983;DHT22;14442;50.196;8.096;2023-11-22T02:37:38;23.10;49.80
15983;DHT22;14442;50.196;8.096;2023-11-22T02:40:09;23.10;49.80
15983;DHT22;14442;50.196;8.096;2023-11-22T02:42:41;23.10;49.80
15983;DHT22;14442;50.196;8.096;2023-11-22T02:45:09;23.10;49.80
15983;DHT22;14442;50.196;8.096;2023-11-22T02:47:35;23.10;49.80
15983;DHT22;14442;50.196;8.096;2023-11-22T02:50:03;23.10;49.80
15983;DHT22;14442;50.196;8.096;2023-11-22T02:52:31;23.10;49.80
15983;DHT22;14442;50.196;8.096;2023-11-22T02:54:57;23.10;49.80
15983;DHT22;14442;50.196;8.096;2023-11-22T02:57:24;23.10;49.80
15983;DHT22;14442;50.196;8.096;2023-11-22T02:59:53;23.10;49.80
15983;DHT22;14442;50.196;8.096;2023-11-22T03:02:19;23.10;49.80
15983;DHT22;14442;50.196;8.096;2023-11-22T03:04:46;23.00;49.80
15983;DHT22;14442;50.196;8.096;2023-11-22T03:07:13;23.00;49.80
15983;DHT22;14442;50.196;8.096;2023-11-22T03:09:40;23.00;49.80
15983;DHT22;14442;50.196;8.096;2023-11-22T03:12:09;23.00;49.80
15983;DHT22;14442;50.196;8.096;2023-11-22T03:14:38;23.00;49.90
15983;DHT22;14442;50.196;8.096;2023-11-22T03:17:06;23.00;49.80
15983;DHT22;14442;50.196;8.096;2023-11-22T03:19:33;23.00;49.90
15983;DHT22;14442;50.196;8.096;2023-11-22T03:22:00;23.00;49.80
15983;DHT22;14442;50.196;8.096;2023-11-22T03:24:28;23.00;49.80
15983;DHT22;14442;50.196;8.096;2023-11-22T03:26:55;22.90;49.80
15983;DHT22;14442;50.196;8.096;2023-11-22T03:29:24;23.00;49.80
15983;DHT22;14442;50.196;8.096;2023-11-22T03:31:51;22.90;49.70
15983;DHT22;14442;50.196;8.096;2023-11-22T03:34:19;22.90;49.70
15983;DHT22;14442;50.196;8.096;2023-11-22T03:36:46;22.90;49.70
15983;DHT22;14442;50.196;8.096;2023-11-22T03:39:14;22.90;49.70
15983;DHT22;14442;50.196;8.096;2023-11-22T03:41:41;22.90;49.80
15983;DHT22;14442;50.196;8.096;2023-11-22T03:44:08;22.90;49.80
15983;DHT22;14442;50.196;8.096;2023-11-22T03:46:35;22.90;49.80
15983;DHT22;14442;50.196;8.096;2023-11-22T03:49:02;22.90;49.80
15983;DHT22;14442;50.196;8.096;2023-11-22T03:51:30;22.90;49.80
15983;DHT22;14442;50.196;8.096;2023-11-22T03:53:57;22.80;49.90
15983;DHT22;14442;50.196;8.096;2023-11-22T03:56:24;22.80;49.80
15983;DHT22;14442;50.196;8.096;2023-11-22T03:58:51;22.80;49.80
15983;DHT22;14442;50.196;8.096;2023-11-22T04:01:17;22.80;49.80
15983;DHT22;14442;50.196;8.096;2023-11-22T04:03:45;22.80;49.90
15983;DHT22;14442;50.196;8.096;2023-11-22T04:06:13;22.80;49.80
15983;DHT22;14442;50.196;8.096;2023-11-22T04:08:42;22.70;49.80
15983;DHT22;14442;50.196;8.096;2023-11-22T04:11:09;22.80;49.80
15983;DHT22;14442;50.196;8.096;2023-11-22T04:13:36;22.70;49.70
15983;DHT22;14442;50.196;8.096;2023-11-22T04:16:04;22.70;49.70
15983;DHT22;14442;50.196;8.096;2023-11-22T04:18:33;22.70;49.70
15983;DHT22;14442;50.196;8.096;2023-11-22T04:21:00;22.70;49.70
15983;DHT22;14442;50.196;8.096;2023-11-22T04:23:28;22.70;50.00
15983;DHT22;14442;50.196;8.096;2023-11-22T04:25:56;22.70;49.80
15983;DHT22;14442;50.196;8.096;2023-11-22T04:28:23;22.70;49.80
15983;DHT22;14442;50.196;8.096;2023-11-22T04:30:50;22.70;49.90
15983;DHT22;14442;50.196;8.096;2023-11-22T04:33:17;22.70;49.80
15983;DHT22;14442;50.196;8.096;2023-11-22T04:35:44;22.60;49.80
15983;DHT22;14442;50.196;8.096;2023-11-22T04:38:11;22.60;49.90
15983;DHT22;14442;50.196;8.096;2023-11-22T04:40:38;22.60;50.00
15983;DHT22;14442;50.196;8.096;2023-11-22T04:43:06;22.60;50.00
15983;DHT22;14442;50.196;8.096;2023-11-22T04:45:33;22.60;49.90
15983;DHT22;14442;50.196;8.096;2023-11-22T04:48:00;22.60;49.90
15983;DHT22;14442;50.196;8.096;2023-11-22T04:50:27;22.60;50.50
15983;DHT22;14442;50.196;8.096;2023-11-22T04:52:54;22.60;49.90
15983;DHT22;14442;50.196;8.096;2023-11-22T04:55:20;22.60;49.90
15983;DHT22;14442;50.196;8.096;2023-11-22T04:57:48;22.50;49.80
15983;DHT22;14442;50.196;8.096;2023-11-22T05:00:17;22.50;49.70
15983;DHT22;14442;50.196;8.096;2023-11-22T05:02:43;22.50;49.80
15983;DHT22;14442;50.196;8.096;2023-11-22T05:05:10;22.50;49.70
15983;DHT22;14442;50.196;8.096;2023-11-22T05:07:37;22.50;50.00
15983;DHT22;14442;50.196;8.096;2023-11-22T05:10:04;22.50;49.90
15983;DHT22;14442;50.196;8.096;2023-11-22T05:12:33;22.50;50.00
15983;DHT22;14442;50.196;8.096;2023-11-22T05:15:00;22.50;50.40
15983;DHT22;14442;50.196;8.096;2023-11-22T05:17:28;22.40;50.00
15983;DHT22;14442;50.196;8.096;2023-11-22T05:19:55;22.40;49.90
15983;DHT22;14442;50.196;8.096;2023-11-22T05:22:22;22.40;49.70
15983;DHT22;14442;50.196;8.096;2023-11-22T05:24:49;22.40;49.60
15983;DHT22;14442;50.196;8.096;2023-11-22T05:27:17;22.30;49.60
15983;DHT22;14442;50.196;8.096;2023-11-22T05:29:43;22.20;49.60
15983;DHT22;14442;50.196;8.096;2023-11-22T05:32:10;22.20;49.60
15983;DHT22;14442;50.196;8.096;2023-11-22T05:34:38;22.10;49.50
15983;DHT22;14442;50.196;8.096;2023-11-22T05:37:06;22.10;49.60
15983;DHT22;14442;50.196;8.096;2023-11-22T05:39:32;22.10;49.30
15983;DHT22;14442;50.196;8.096;2023-11-22T05:41:59;22.10;49.10
15983;DHT22;14442;50.196;8.096;2023-11-22T05:44:26;22.10;49.10
15983;DHT22;14442;50.196;8.096;2023-11-22T05:46:52;22.10;49.10
15983;DHT22;14442;50.196;8.096;2023-11-22T05:49:20;22.10;49.30
15983;DHT22;14442;50.196;8.096;2023-11-22T05:51:48;22.00;49.30
15983;DHT22;14442;50.196;8.096;2023-11-22T05:54:14;22.00;49.10
15983;DHT22;14442;50.196;8.096;2023-11-22T05:56:42;22.00;49.20
15983;DHT22;14442;50.196;8.096;2023-11-22T05:59:08;22.00;49.10
15983;DHT22;14442;50.196;8.096;2023-11-22T06:01:35;22.00;49.30
15983;DHT22;14442;50.196;8.096;2023-11-22T06:04:02;21.90;49.30
15983;DHT22;14442;50.196;8.096;2023-11-22T06:06:29;21.90;49.30
15983;DHT22;14442;50.196;8.096;2023-11-22T06:08:57;21.90;49.30
15983;DHT22;14442;50.196;8.096;2023-11-22T06:11:25;21.90;49.30
15983;DHT22;14442;50.196;8.096;2023-11-22T06:13:52;21.90;49.30
15983;DHT22;14442;50.196;8.096;2023-11-22T06:16:19;21.80;49.20
15983;DHT22;14442;50.196;8.096;2023-11-22T06:18:45;21.80;49.10
15983;DHT22;14442;50.196;8.096;2023-11-22T06:21:12;21.80;49.10
15983;DHT22;14442;50.196;8.096;2023-11-22T06:23:39;21.80;49.10
15983;DHT22;14442;50.196;8.096;2023-11-22T06:26:07;21.80;49.10
15983;DHT22;14442;50.196;8.096;2023-11-22T06:28:34;21.70;49.00
15983;DHT22;14442;50.196;8.096;2023-11-22T06:31:01;21.70;49.00
15983;DHT22;14442;50.196;8.096;2023-11-22T06:33:28;21.70;48.90
15983;DHT22;14442;50.196;8.096;2023-11-22T06:35:55;21.70;48.90
15983;DHT22;14442;50.196;8.096;2023-11-22T06:38:22;21.70;48.90
15983;DHT22;14442;50.196;8.096;2023-11-22T06:40:48;21.70;48.90
15983;DHT22;14442;50.196;8.096;2023-11-22T06:43:16;21.60;48.80
15983;DHT22;14442;50.196;8.096;2023-11-22T06:45:43;21.60;48.80
15983;DHT22;14442;50.196;8.096;2023-11-22T06:48:10;21.60;48.80
15983;DHT22;14442;50.196;8.096;2023-11-22T06:50:37;21.60;48.80
15983;DHT22;14442;50.196;8.096;2023-11-22T06:53:03;21.60;48.80
15983;DHT22;14442;50.196;8.096;2023-11-22T06:55:31;21.60;48.60
15983;DHT22;14442;50.196;8.096;2023-11-22T06:57:58;21.70;48.60
15983;DHT22;14442;50.196;8.096;2023-11-22T07:00:27;21.70;48.60
15983;DHT22;14442;50.196;8.096;2023-11-22T07:02:54;21.70;48.60
15983;DHT22;14442;50.196;8.096;2023-11-22T07:05:21;21.70;48.60
15983;DHT22;14442;50.196;8.096;2023-11-22T07:07:49;21.70;48.60
15983;DHT22;14442;50.196;8.096;2023-11-22T07:10:16;21.70;48.70
15983;DHT22;14442;50.196;8.096;2023-11-22T07:12:46;21.70;48.70
15983;DHT22;14442;50.196;8.096;2023-11-22T07:15:13;21.80;48.70
15983;DHT22;14442;50.196;8.096;2023-11-22T07:17:41;21.80;48.60
15983;DHT22;14442;50.196;8.096;2023-11-22T07:20:08;21.80;48.60
15983;DHT22;14442;50.196;8.096;2023-11-22T07:22:41;21.80;48.50
15983;DHT22;14442;50.196;8.096;2023-11-22T07:25:08;21.80;48.30
15983;DHT22;14442;50.196;8.096;2023-11-22T07:27:43;21.90;48.30
15983;DHT22;14442;50.196;8.096;2023-11-22T07:30:11;21.90;48.20
15983;DHT22;14442;50.196;8.096;2023-11-22T07:32:38;21.90;48.20
15983;DHT22;14442;50.196;8.096;2023-11-22T07:35:08;21.90;48.10
15983;DHT22;14442;50.196;8.096;2023-11-22T07:37:34;22.00;48.20
15983;DHT22;14442;50.196;8.096;2023-11-22T07:40:01;22.00;48.20
15983;DHT22;14442;50.196;8.096;2023-11-22T07:42:29;22.00;48.20
15983;DHT22;14442;50.196;8.096;2023-11-22T07:44:56;22.00;48.40
15983;DHT22;14442;50.196;8.096;2023-11-22T07:47:23;22.00;48.60
15983;DHT22;14442;50.196;8.096;2023-11-22T07:49:50;22.00;48.40
15983;DHT22;14442;50.196;8.096;2023-11-22T07:52:18;22.00;48.40
15983;DHT22;14442;50.196;8.096;2023-11-22T07:54:45;22.10;48.40
15983;DHT22;14442;50.196;8.096;2023-11-22T07:57:11;22.10;48.40
15983;DHT22;14442;50.196;8.096;2023-11-22T07:59:38;22.10;48.40
15983;DHT22;14442;50.196;8.096;2023-11-22T08:02:05;22.20;48.50
15983;DHT22;14442;50.196;8.096;2023-11-22T08:04:36;22.20;48.50
15983;DHT22;14442;50.196;8.096;2023-11-22T08:07:03;22.20;48.40
15983;DHT22;14442;50.196;8.096;2023-11-22T08:09:31;22.20;48.40
15983;DHT22;14442;50.196;8.096;2023-11-22T08:11:58;22.20;48.40
15983;DHT22;14442;50.196;8.096;2023-11-22T08:14:26;22.30;48.30
15983;DHT22;14442;50.196;8.096;2023-11-22T08:16:53;22.30;48.30
15983;DHT22;14442;50.196;8.096;2023-11-22T08:19:20;22.30;48.20
15983;DHT22;14442;50.196;8.096;2023-11-22T08:21:47;22.30;48.10
15983;DHT22;14442;50.196;8.096;2023-11-22T08:24:14;22.30;48.10
15983;DHT22;14442;50.196;8.096;2023-11-22T08:26:42;22.30;48.20
15983;DHT22;14442;50.196;8.096;2023-11-22T08:29:09;22.40;48.20
15983;DHT22;14442;50.196;8.096;2023-11-22T08:31:36;22.40;48.10
15983;DHT22;14442;50.196;8.096;2023-11-22T08:34:03;22.40;48.20
15983;DHT22;14442;50.196;8.096;2023-11-22T08:36:32;22.40;48.10
15983;DHT22;14442;50.196;8.096;2023-11-22T08:38:59;22.40;48.00
15983;DHT22;14442;50.196;8.096;2023-11-22T08:41:27;22.40;48.10
15983;DHT22;14442;50.196;8.096;2023-11-22T08:43:56;22.40;48.00
15983;DHT22;14442;50.196;8.096;2023-11-22T08:46:23;22.40;48.10
15983;DHT22;14442;50.196;8.096;2023-11-22T08:48:50;22.40;48.00
15983;DHT22;14442;50.196;8.096;2023-11-22T08:51:17;22.40;47.90
15983;DHT22;14442;50.196;8.096;2023-11-22T08:53:44;22.50;48.00
15983;DHT22;14442;50.196;8.096;2023-11-22T08:56:11;22.50;48.00
15983;DHT22;14442;50.196;8.096;2023-11-22T08:58:38;22.50;48.10
15983;DHT22;14442;50.196;8.096;2023-11-22T09:01:06;22.50;47.90
15983;DHT22;14442;50.196;8.096;2023-11-22T09:03:33;22.50;47.90
15983;DHT22;14442;50.196;8.096;2023-11-22T09:06:00;22.50;47.90
15983;DHT22;14442;50.196;8.096;2023-11-22T09:08:28;22.50;47.80
15983;DHT22;14442;50.196;8.096;2023-11-22T09:10:55;22.50;47.80
15983;DHT22;14442;50.196;8.096;2023-11-22T09:13:22;22.50;47.90
15983;DHT22;14442;50.196;8.096;2023-11-22T09:15:50;22.50;47.80
15983;DHT22;14442;50.196;8.096;2023-11-22T09:18:18;22.50;47.80
15983;DHT22;14442;50.196;8.096;2023-11-22T09:20:45;22.50;47.60
15983;DHT22;14442;50.196;8.096;2023-11-22T09:23:11;22.60;47.80
15983;DHT22;14442;50.196;8.096;2023-11-22T09:25:39;22.60;47.80
15983;DHT22;14442;50.196;8.096;2023-11-22T09:28:06;22.60;47.80
15983;DHT22;14442;50.196;8.096;2023-11-22T09:30:35;22.60;47.70
15983;DHT22;14442;50.196;8.096;2023-11-22T09:33:05;22.60;47.60
15983;DHT22;14442;50.196;8.096;2023-11-22T09:35:34;22.60;47.60
15983;DHT22;14442;50.196;8.096;2023-11-22T09:38:01;22.60;47.50
15983;DHT22;14442;50.196;8.096;2023-11-22T09:40:28;22.60;47.50
15983;DHT22;14442;50.196;8.096;2023-11-22T09:42:57;22.60;47.70
15983;DHT22;14442;50.196;8.096;2023-11-22T09:45:26;22.60;47.50
15983;DHT22;14442;50.196;8.096;2023-11-22T09:47:53;22.60;47.50
15983;DHT22;14442;50.196;8.096;2023-11-22T09:50:22;22.60;47.50
15983;DHT22;14442;50.196;8.096;2023-11-22T09:52:52;22.60;47.60
15983;DHT22;14442;50.196;8.096;2023-11-22T09:55:21;22.60;47.60
15983;DHT22;14442;50.196;8.096;2023-11-22T09:57:52;22.60;47.50
15983;DHT22;14442;50.196;8.096;2023-11-22T10:00:20;22.60;47.60
15983;DHT22;14442;50.196;8.096;2023-11-22T10:02:47;22.60;47.40
15983;DHT22;14442;50.196;8.096;2023-11-22T10:05:14;22.60;47.60
15983;DHT22;14442;50.196;8.096;2023-11-22T10:07:41;22.60;47.50
15983;DHT22;14442;50.196;8.096;2023-11-22T10:10:09;22.60;47.50
15983;DHT22;14442;50.196;8.096;2023-11-22T10:12:36;22.60;47.50
15983;DHT22;14442;50.196;8.096;2023-11-22T10:15:16;22.60;47.40
15983;DHT22;14442;50.196;8.096;2023-11-22T10:17:50;22.50;47.30
15983;DHT22;14442;50.196;8.096;2023-11-22T10:20:21;22.50;47.50
15983;DHT22;14442;50.196;8.096;2023-11-22T10:22:48;22.50;47.40
15983;DHT22;14442;50.196;8.096;2023-11-22T10:25:16;22.50;47.30
15983;DHT22;14442;50.196;8.096;2023-11-22T10:27:45;22.50;47.40
15983;DHT22;14442;50.196;8.096;2023-11-22T10:30:12;22.50;47.50
15983;DHT22;14442;50.196;8.096;2023-11-22T10:32:41;22.50;47.30
15983;DHT22;14442;50.196;8.096;2023-11-22T10:35:08;22.50;47.30
15983;DHT22;14442;50.196;8.096;2023-11-22T10:37:35;22.50;47.20
15983;DHT22;14442;50.196;8.096;2023-11-22T10:40:01;22.50;47.20
15983;DHT22;14442;50.196;8.096;2023-11-22T10:42:33;22.60;47.30
15983;DHT22;14442;50.196;8.096;2023-11-22T10:45:00;22.60;47.20
15983;DHT22;14442;50.196;8.096;2023-11-22T10:47:30;22.70;47.30
15983;DHT22;14442;50.196;8.096;2023-11-22T10:49:57;22.70;47.20
15983;DHT22;14442;50.196;8.096;2023-11-22T10:52:27;22.70;47.20
15983;DHT22;14442;50.196;8.096;2023-11-22T10:55:01;22.70;47.00
15983;DHT22;14442;50.196;8.096;2023-11-22T10:57:34;22.80;47.40
15983;DHT22;14442;50.196;8.096;2023-11-22T11:00:04;22.80;47.40
15983;DHT22;14442;50.196;8.096;2023-11-22T11:02:37;22.80;47.40
15983;DHT22;14442;50.196;8.096;2023-11-22T11:05:11;22.90;47.80
15983;DHT22;14442;50.196;8.096;2023-11-22T11:07:43;22.80;47.80
15983;DHT22;14442;50.196;8.096;2023-11-22T11:10:12;22.80;48.20
15983;DHT22;14442;50.196;8.096;2023-11-22T11:12:41;22.80;48.30
15983;DHT22;14442;50.196;8.096;2023-11-22T11:15:09;22.80;48.40
15983;DHT22;14442;50.196;8.096;2023-11-22T11:17:36;22.80;48.40
15983;DHT22;14442;50.196;8.096;2023-11-22T11:20:06;22.70;48.20
15983;DHT22;14442;50.196;8.096;2023-11-22T11:22:33;22.80;48.40
15983;DHT22;14442;50.196;8.096;2023-11-22T11:25:01;22.70;48.20
15983;DHT22;14442;50.196;8.096;2023-11-22T11:27:33;22.70;48.20
15983;DHT22;14442;50.196;8.096;2023-11-22T11:30:02;22.70;48.20
15983;DHT22;14442;50.196;8.096;2023-11-22T11:32:50;22.70;48.20
15983;DHT22;14442;50.196;8.096;2023-11-22T11:35:17;22.70;48.20
15983;DHT22;14442;50.196;8.096;2023-11-22T11:37:46;22.70;48.20
15983;DHT22;14442;50.196;8.096;2023-11-22T11:40:26;22.70;48.20
15983;DHT22;14442;50.196;8.096;2023-11-22T11:42:54;22.70;48.20
15983;DHT22;14442;50.196;8.096;2023-11-22T11:45:23;22.80;48.20
15983;DHT22;14442;50.196;8.096;2023-11-22T11:47:50;22.70;48.10
15983;DHT22;14442;50.196;8.096;2023-11-22T11:50:17;22.80;48.20
15983;DHT22;14442;50.196;8.096;2023-11-22T11:52:44;22.80;48.10
15983;DHT22;14442;50.196;8.096;2023-11-22T11:55:11;22.80;47.90
15983;DHT22;14442;50.196;8.096;2023-11-22T11:57:38;22.90;48.00
15983;DHT22;14442;50.196;8.096;2023-11-22T12:00:08;22.90;47.80
15983;DHT22;14442;50.196;8.096;2023-11-22T12:02:40;23.00;47.90
15983;DHT22;14442;50.196;8.096;2023-11-22T12:05:07;23.00;47.70
15983;DHT22;14442;50.196;8.096;2023-11-22T12:07:35;22.90;47.70
15983;DHT22;14442;50.196;8.096;2023-11-22T12:10:02;22.80;47.60
15983;DHT22;14442;50.196;8.096;2023-11-22T12:12:31;22.70;47.60
15983;DHT22;14442;50.196;8.096;2023-11-22T12:14:58;22.70;47.50
15983;DHT22;14442;50.196;8.096;2023-11-22T12:17:25;22.70;47.50
15983;DHT22;14442;50.196;8.096;2023-11-22T12:20:09;22.70;47.60
15983;DHT22;14442;50.196;8.096;2023-11-22T12:22:37;22.70;47.30
15983;DHT22;14442;50.196;8.096;2023-11-22T12:25:05;22.90;47.20
15983;DHT22;14442;50.196;8.096;2023-11-22T12:27:32;23.00;46.90
15983;DHT22;14442;50.196;8.096;2023-11-22T12:29:59;23.20;46.80
15983;DHT22;14442;50.196;8.096;2023-11-22T12:32:26;23.30;46.50
15983;DHT22;14442;50.196;8.096;2023-11-22T12:34:55;23.40;46.50
15983;DHT22;14442;50.196;8.096;2023-11-22T12:37:22;23.50;46.50
15983;DHT22;14442;50.196;8.096;2023-11-22T12:39:50;23.50;46.40
15983;DHT22;14442;50.196;8.096;2023-11-22T12:42:17;23.70;46.20
15983;DHT22;14442;50.196;8.096;2023-11-22T12:44:49;23.70;45.80
15983;DHT22;14442;50.196;8.096;2023-11-22T12:47:31;23.80;45.90
15983;DHT22;14442;50.196;8.096;2023-11-22T12:50:01;23.80;45.70
15983;DHT22;14442;50.196;8.096;2023-11-22T12:52:29;23.90;45.70
15983;DHT22;14442;50.196;8.096;2023-11-22T12:54:55;23.90;45.70
15983;DHT22;14442;50.196;8.096;2023-11-22T12:57:22;23.90;45.80
15983;DHT22;14442;50.196;8.096;2023-11-22T12:59:49;23.90;45.70
15983;DHT22;14442;50.196;8.096;2023-11-22T13:02:16;23.90;45.50
15983;DHT22;14442;50.196;8.096;2023-11-22T13:04:43;23.90;45.60
15983;DHT22;14442;50.196;8.096;2023-11-22T13:07:12;24.00;45.70
15983;DHT22;14442;50.196;8.096;2023-11-22T13:09:39;24.00;45.70
15983;DHT22;14442;50.196;8.096;2023-11-22T13:12:06;24.10;45.70
15983;DHT22;14442;50.196;8.096;2023-11-22T13:14:33;24.10;45.70
15983;DHT22;14442;50.196;8.096;2023-11-22T13:17:03;24.10;45.80
15983;DHT22;14442;50.196;8.096;2023-11-22T13:19:32;24.10;45.70
15983;DHT22;14442;50.196;8.096;2023-11-22T13:21:59;24.10;45.80
15983;DHT22;14442;50.196;8.096;2023-11-22T13:24:27;24.10;45.90
15983;DHT22;14442;50.196;8.096;2023-11-22T13:26:53;24.20;45.80
15983;DHT22;14442;50.196;8.096;2023-11-22T13:29:20;24.20;45.70
15983;DHT22;14442;50.196;8.096;2023-11-22T13:31:47;24.20;45.80
15983;DHT22;14442;50.196;8.096;2023-11-22T13:34:14;24.20;45.90
15983;DHT22;14442;50.196;8.096;2023-11-22T13:36:40;24.20;45.80
15983;DHT22;14442;50.196;8.096;2023-11-22T13:39:07;24.20;45.90
15983;DHT22;14442;50.196;8.096;2023-11-22T13:41:35;24.30;45.80
15983;DHT22;14442;50.196;8.096;2023-11-22T13:44:03;24.20;45.80
15983;DHT22;14442;50.196;8.096;2023-11-22T13:46:29;24.20;45.70
15983;DHT22;14442;50.196;8.096;2023-11-22T13:48:56;24.20;45.60
15983;DHT22;14442;50.196;8.096;2023-11-22T13:51:23;24.20;45.60
15983;DHT22;14442;50.196;8.096;2023-11-22T13:53:50;24.20;46.10
15983;DHT22;14442;50.196;8.096;2023-11-22T13:56:18;24.10;46.40
15983;DHT22;14442;50.196;8.096;2023-11-22T13:58:47;24.10;46.50
15983;DHT22;14442;50.196;8.096;2023-11-22T14:01:14;24.10;46.50
15983;DHT22;14442;50.196;8.096;2023-11-22T14:03:46;24.10;46.50
15983;DHT22;14442;50.196;8.096;2023-11-22T14:06:13;24.00;46.40
15983;DHT22;14442;50.196;8.096;2023-11-22T14:08:42;24.00;46.40
15983;DHT22;14442;50.196;8.096;2023-11-22T14:11:10;24.00;46.30
15983;DHT22;14442;50.196;8.096;2023-11-22T14:13:37;24.00;46.20
15983;DHT22;14442;50.196;8.096;2023-11-22T14:16:07;24.00;46.20
15983;DHT22;14442;50.196;8.096;2023-11-22T14:18:35;23.90;46.00
15983;DHT22;14442;50.196;8.096;2023-11-22T14:21:02;23.90;45.90
15983;DHT22;14442;50.196;8.096;2023-11-22T14:23:29;23.90;45.90
15983;DHT22;14442;50.196;8.096;2023-11-22T14:25:56;23.90;45.90
15983;DHT22;14442;50.196;8.096;2023-11-22T14:28:23;23.70;45.60
15983;DHT22;14442;50.196;8.096;2023-11-22T14:30:49;23.50;45.30
15983;DHT22;14442;50.196;8.096;2023-11-22T14:33:21;23.40;44.90
15983;DHT22;14442;50.196;8.096;2023-11-22T14:35:48;23.40;44.80
15983;DHT22;14442;50.196;8.096;2023-11-22T14:38:15;23.40;44.60
15983;DHT22;14442;50.196;8.096;2023-11-22T14:40:43;23.50;44.60
15983;DHT22;14442;50.196;8.096;2023-11-22T14:43:09;23.50;44.60
15983;DHT22;14442;50.196;8.096;2023-11-22T14:45:37;23.50;44.20
15983;DHT22;14442;50.196;8.096;2023-11-22T14:48:05;23.50;44.40
15983;DHT22;14442;50.196;8.096;2023-11-22T14:50:34;23.60;44.60
15983;DHT22;14442;50.196;8.096;2023-11-22T14:53:01;23.50;44.40
15983;DHT22;14442;50.196;8.096;2023-11-22T14:55:28;23.60;44.70
15983;DHT22;14442;50.196;8.096;2023-11-22T14:57:54;23.50;44.60
15983;DHT22;14442;50.196;8.096;2023-11-22T15:00:22;23.50;44.60
15983;DHT22;14442;50.196;8.096;2023-11-22T15:02:50;23.50;44.70
15983;DHT22;14442;50.196;8.096;2023-11-22T15:05:17;23.50;44.80
15983;DHT22;14442;50.196;8.096;2023-11-22T15:07:45;23.50;44.80
15983;DHT22;14442;50.196;8.096;2023-11-22T15:10:12;23.50;44.90
15983;DHT22;14442;50.196;8.096;2023-11-22T15:12:40;23.50;44.90
15983;DHT22;14442;50.196;8.096;2023-11-22T15:15:08;23.40;44.80
15983;DHT22;14442;50.196;8.096;2023-11-22T15:17:35;23.40;44.80
15983;DHT22;14442;50.196;8.096;2023-11-22T15:20:03;23.40;44.90
15983;DHT22;14442;50.196;8.096;2023-11-22T15:22:34;23.40;44.90
15983;DHT22;14442;50.196;8.096;2023-11-22T15:25:03;23.40;45.10
15983;DHT22;14442;50.196;8.096;2023-11-22T15:27:30;23.40;45.10
15983;DHT22;14442;50.196;8.096;2023-11-22T15:29:57;23.40;45.00
15983;DHT22;14442;50.196;8.096;2023-11-22T15:32:24;23.40;45.10